Time;durP1;ratioP1;P1;durP2;ratioP2;P2;SDS_P1;SDS_P2;PMS_P1;PMS_P2;Temp;Humidity;BMP_temperature;BMP_pressure;BME280_temperature;BME280_humidity;BME280_pressure;Samples;Min_cycle;Max_cycle;Signal;HPM_P1;HPM_P2
2022/08/11 00:01:08;;;;;;;1.90;1.80;;;24.00;42.90;;;;;;5033663;28;20199;-66
2022/08/11 00:03:35;;;;;;;1.63;1.52;;;24.00;42.90;;;;;;5033563;28;20239;-66
2022/08/11 00:06:02;;;;;;;1.95;1.85;;;24.00;42.90;;;;;;5034119;28;20243;-66
2022/08/11 00:08:31;;;;;;;1.90;1.80;;;24.00;42.90;;;;;;5033243;28;20203;-67
2022/08/11 00:11:00;;;;;;;2.13;1.70;;;24.00;43.20;;;;;;5033382;28;20207;-66
2022/08/11 00:13:32;;;;;;;1.90;1.80;;;24.00;42.90;;;;;;5033875;28;20298;-66
2022/08/11 00:16:00;;;;;;;2.22;1.90;;;24.00;42.90;;;;;;5033286;28;20254;-66
2022/08/11 00:18:27;;;;;;;2.47;1.90;;;24.00;43.00;;;;;;5034666;28;20200;-67
2022/08/11 00:20:54;;;;;;;2.10;1.90;;;24.00;42.90;;;;;;5034280;28;20675;-67
2022/08/11 00:23:21;;;;;;;1.70;1.60;;;24.00;43.10;;;;;;5032587;28;20674;-67
2022/08/11 00:25:50;;;;;;;2.00;1.85;;;23.90;42.90;;;;;;5033138;28;20216;-67
2022/08/11 00:28:24;;;;;;;1.85;1.73;;;23.90;43.00;;;;;;5034447;28;20192;-67
2022/08/11 00:30:52;;;;;;;1.70;1.60;;;23.90;43.00;;;;;;5033059;28;20594;-66
2022/08/11 00:33:20;;;;;;;1.88;1.75;;;23.90;43.10;;;;;;5033036;28;20196;-66
2022/08/11 00:35:47;;;;;;;1.70;1.60;;;23.90;43.20;;;;;;5034106;28;20222;-67
2022/08/11 00:38:14;;;;;;;1.88;1.70;;;23.90;42.90;;;;;;5033016;28;20619;-67
2022/08/11 00:40:44;;;;;;;2.05;1.85;;;23.90;42.90;;;;;;5032971;28;20199;-67
2022/08/11 00:43:17;;;;;;;2.00;1.80;;;23.90;43.10;;;;;;5032957;28;20679;-66
2022/08/11 00:45:46;;;;;;;1.90;1.80;;;23.80;43.10;;;;;;5033988;28;20212;-67
2022/08/11 00:48:26;;;;;;;2.33;1.80;;;23.90;43.10;;;;;;5032969;28;20649;-67
2022/08/11 00:51:00;;;;;;;2.55;1.90;;;23.80;42.90;;;;;;5032606;28;20192;-66
2022/08/11 00:53:34;;;;;;;1.92;1.83;;;23.80;42.90;;;;;;5032741;28;20196;-66
2022/08/11 00:56:16;;;;;;;2.13;1.90;;;23.80;43.40;;;;;;5033853;28;20787;-66
2022/08/11 00:59:30;;;;;;;1.80;1.70;;;23.80;43.10;;;;;;5032539;28;20192;-66
2022/08/11 01:02:06;;;;;;;1.80;1.70;;;23.80;43.30;;;;;;5032807;28;20764;-67
2022/08/11 01:05:11;;;;;;;1.77;1.67;;;23.80;43.50;;;;;;5032855;28;20196;-67
2022/08/11 01:08:07;;;;;;;1.83;1.73;;;23.80;43.30;;;;;;5032528;28;20280;-67
2022/08/11 01:11:07;;;;;;;1.90;1.80;;;23.80;43.30;;;;;;5034168;28;20180;-67
2022/08/11 01:14:10;;;;;;;2.10;1.90;;;23.80;43.60;;;;;;5045843;28;20694;-66
2022/08/11 01:17:26;;;;;;;2.00;1.80;;;23.70;43.50;;;;;;5031373;28;20588;-67
2022/08/11 01:20:15;;;;;;;2.58;1.90;;;23.70;43.40;;;;;;4983215;28;20207;-67
2022/08/11 01:23:04;;;;;;;1.90;1.80;;;23.70;43.60;;;;;;5033693;28;20303;-67
2022/08/11 01:26:14;;;;;;;2.83;1.90;;;23.70;43.60;;;;;;5032211;28;20704;-66
2022/08/11 01:29:20;;;;;;;1.98;1.88;;;23.70;43.50;;;;;;5032317;28;20214;-66
2022/08/11 01:32:00;;;;;;;2.17;1.90;;;23.70;43.80;;;;;;5034281;28;20196;-66
2022/08/11 01:35:18;;;;;;;1.80;1.70;;;23.70;43.50;;;;;;5033491;28;20185;-67
2022/08/11 01:38:12;;;;;;;1.80;1.70;;;23.60;43.40;;;;;;5032199;28;20306;-68
2022/08/11 01:41:12;;;;;;;1.98;1.88;;;23.60;43.40;;;;;;5032064;28;20192;-67
2022/08/11 01:47:06;;;;;;;1.98;1.70;;;23.60;43.60;;;;;;5026421;28;20261;-67
2022/08/11 01:49:36;;;;;;;1.88;1.70;;;23.60;43.50;;;;;;5037355;28;20172;-67
2022/08/11 01:52:09;;;;;;;1.80;1.70;;;23.60;43.50;;;;;;5037322;28;20726;-66
2022/08/11 01:54:42;;;;;;;1.77;1.67;;;23.60;43.50;;;;;;5037313;28;20617;-66
2022/08/11 01:57:16;;;;;;;2.28;1.80;;;23.60;43.80;;;;;;5036068;28;20220;-66
2022/08/11 01:59:48;;;;;;;2.00;1.80;;;23.50;43.60;;;;;;5036330;28;20192;-66
2022/08/11 02:02:47;;;;;;;2.00;1.90;;;23.50;43.40;;;;;;5037039;28;20176;-66
2022/08/11 02:05:28;;;;;;;2.00;1.80;;;23.50;43.60;;;;;;5035695;28;20220;-67
2022/08/11 02:08:00;;;;;;;2.20;2.00;;;23.50;43.50;;;;;;5035694;28;20192;-66
2022/08/11 02:13:30;;;;;;;2.15;2.03;;;23.40;43.70;;;;;;5036917;28;20177;-67
2022/08/11 02:16:05;;;;;;;2.10;2.00;;;23.50;43.60;;;;;;5036930;28;20583;-67
2022/08/11 02:24:04;;;;;;;2.47;1.88;;;23.50;43.60;;;;;;5035276;28;20362;-66
2022/08/11 02:26:36;;;;;;;1.70;1.60;;;23.40;43.60;;;;;;5035271;28;20307;-66
2022/08/11 02:29:05;;;;;;;1.92;1.80;;;23.40;43.70;;;;;;5035460;28;20185;-67
2022/08/11 02:34:36;;;;;;;1.70;1.60;;;23.40;43.60;;;;;;5035705;28;20199;-66
2022/08/11 02:37:14;;;;;;;1.90;1.80;;;23.40;43.70;;;;;;5034952;28;20265;-66
2022/08/11 02:39:46;;;;;;;1.95;1.80;;;23.40;43.70;;;;;;5035165;28;20644;-68
2022/08/11 02:42:23;;;;;;;2.03;1.83;;;23.40;43.80;;;;;;5035201;28;20200;-67
2022/08/11 02:44:57;;;;;;;2.10;2.00;;;23.40;43.80;;;;;;5035026;28;20711;-67
2022/08/11 02:47:31;;;;;;;2.10;1.90;;;23.40;43.90;;;;;;5035142;28;20595;-67
2022/08/11 02:50:00;;;;;;;2.30;1.90;;;23.30;43.90;;;;;;5035028;28;20196;-67
2022/08/11 02:52:31;;;;;;;1.85;1.75;;;23.30;43.90;;;;;;5035044;28;20203;-66
2022/08/11 02:55:13;;;;;;;1.90;1.80;;;23.30;44.50;;;;;;5034900;28;20195;-67
2022/08/11 02:57:44;;;;;;;2.10;2.00;;;23.30;43.90;;;;;;5034832;28;20216;-66
2022/08/11 03:00:13;;;;;;;2.20;2.00;;;23.30;43.90;;;;;;5034955;28;20683;-66
2022/08/11 03:02:49;;;;;;;2.78;2.45;;;23.30;43.90;;;;;;5036109;28;20234;-66
2022/08/11 03:05:37;;;;;;;2.40;2.20;;;23.30;43.90;;;;;;5035238;28;20228;-66
2022/08/11 03:08:36;;;;;;;2.88;2.30;;;23.30;43.60;;;;;;5036319;28;20553;-66
2022/08/11 03:16:48;;;;;;;2.25;2.10;;;23.30;43.90;;;;;;5036345;28;20676;-66
2022/08/11 03:19:28;;;;;;;3.25;2.25;;;23.20;43.80;;;;;;5035437;28;20196;-66
2022/08/11 03:22:01;;;;;;;3.00;2.00;;;23.30;43.90;;;;;;5038671;28;20185;-66
2022/08/11 03:24:32;;;;;;;3.72;2.30;;;23.20;43.80;;;;;;5035562;28;20316;-67
2022/08/11 03:27:03;;;;;;;2.20;2.10;;;23.20;43.80;;;;;;5036367;28;20212;-66
2022/08/11 03:29:34;;;;;;;2.10;2.00;;;23.30;43.90;;;;;;5057329;22;20254;-74
2022/08/11 03:32:03;;;;;;;2.45;2.20;;;23.30;43.90;;;;;;5054853;28;20198;-74
2022/08/11 03:34:30;;;;;;;2.63;1.90;;;23.20;43.80;;;;;;5054838;28;20195;-74
2022/08/11 03:37:11;;;;;;;2.50;2.05;;;23.30;43.90;;;;;;5054464;28;20207;-74
2022/08/11 03:39:46;;;;;;;2.15;2.05;;;23.30;43.90;;;;;;5035842;28;20196;-74
2022/08/11 03:42:17;;;;;;;3.30;2.10;;;23.30;43.90;;;;;;5035498;28;20194;-74
2022/08/11 03:44:59;;;;;;;2.20;2.00;;;23.30;43.90;;;;;;5034469;28;20275;-74
2022/08/11 03:47:42;;;;;;;2.22;2.10;;;23.30;43.80;;;;;;5034534;28;20199;-74
2022/08/11 03:50:16;;;;;;;2.28;2.08;;;23.30;43.80;;;;;;5034644;28;20639;-74
2022/08/11 03:52:49;;;;;;;2.22;2.13;;;23.30;43.80;;;;;;5035069;28;20250;-74
2022/08/11 03:55:23;;;;;;;2.40;2.20;;;23.30;43.90;;;;;;5034274;28;20210;-74
2022/08/11 03:58:20;;;;;;;2.20;2.10;;;23.30;43.80;;;;;;5034297;28;20231;-74
2022/08/11 04:01:24;;;;;;;2.00;1.90;;;23.30;43.90;;;;;;5035399;28;20204;-74
2022/08/11 04:04:30;;;;;;;2.53;2.33;;;23.30;43.70;;;;;;5035416;28;20200;-74
2022/08/11 04:07:27;;;;;;;2.22;2.03;;;23.30;43.90;;;;;;5032314;28;20203;-74
2022/08/11 04:10:25;;;;;;;2.20;2.00;;;23.30;43.90;;;;;;5027915;28;20207;-73
2022/08/11 04:13:02;;;;;;;2.58;2.38;;;23.30;43.90;;;;;;5035780;28;20193;-74
2022/08/11 04:16:01;;;;;;;2.50;2.30;;;23.20;43.70;;;;;;5034068;28;20221;-73
2022/08/11 04:19:07;;;;;;;2.83;2.60;;;23.20;43.80;;;;;;5033774;28;20272;-74
2022/08/11 04:21:58;;;;;;;2.78;2.58;;;23.10;43.90;;;;;;4996861;28;20292;-73
2022/08/11 04:24:52;;;;;;;3.83;2.92;;;22.80;44.50;;;;;;5013362;28;20719;-75
2022/08/11 04:27:43;;;;;;;3.22;2.92;;;22.60;44.70;;;;;;5041975;28;20588;-73
2022/08/11 04:30:13;;;;;;;3.72;3.08;;;22.50;45.10;;;;;;5033722;28;20219;-74
2022/08/11 04:32:57;;;;;;;3.53;2.90;;;22.30;45.60;;;;;;5034041;28;20550;-75
2022/08/11 04:35:31;;;;;;;5.10;3.58;;;22.10;45.70;;;;;;5038437;28;20531;-73
2022/08/11 04:38:14;;;;;;;3.67;3.30;;;22.00;46.70;;;;;;5035794;28;20215;-74
2022/08/11 04:40:54;;;;;;;3.90;3.10;;;21.80;46.20;;;;;;5034286;28;20547;-74
2022/08/11 04:43:40;;;;;;;4.25;3.55;;;21.80;46.30;;;;;;5040495;28;20246;-73
2022/08/11 04:46:26;;;;;;;3.88;3.40;;;21.90;45.90;;;;;;5033255;28;20275;-74
2022/08/11 05:07:20;;;;;;;5.75;3.60;;;22.50;45.50;;;;;;5034491;28;20680;-75
2022/08/11 05:10:03;;;;;;;3.92;3.13;;;22.60;45.40;;;;;;5033238;28;20192;-75
2022/08/11 05:12:35;;;;;;;4.00;3.20;;;22.60;45.20;;;;;;5032737;28;20204;-75
2022/08/11 05:34:53;;;;;;;4.03;3.47;;;24.20;43.00;;;;;;5032547;28;20275;-74
2022/08/11 05:37:22;;;;;;;5.30;3.75;;;24.40;42.50;;;;;;5032427;28;20189;-73
2022/08/11 05:56:35;;;;;;;3.80;3.50;;;25.60;40.80;;;;;;5032631;28;20219;-74
2022/08/11 05:59:03;;;;;;;4.32;3.45;;;25.70;40.40;;;;;;5031997;28;20262;-74
2022/08/11 06:01:31;;;;;;;4.32;3.33;;;25.90;40.10;;;;;;5015933;28;20203;-75
2022/08/11 06:04:15;;;;;;;5.20;3.70;;;25.90;39.90;;;;;;5032265;28;20560;-74
2022/08/11 06:06:51;;;;;;;4.10;3.70;;;26.10;39.80;;;;;;5033213;28;20223;-75
2022/08/11 06:09:31;;;;;;;4.53;3.80;;;26.20;39.50;;;;;;5032349;28;20243;-74
2022/08/11 06:12:01;;;;;;;4.85;3.50;;;26.30;39.40;;;;;;5032883;28;20200;-75
2022/08/11 06:14:30;;;;;;;5.47;3.97;;;26.40;39.20;;;;;;5032420;28;20192;-75
2022/08/11 06:16:59;;;;;;;4.03;3.63;;;26.50;39.00;;;;;;5036125;28;20195;-75
2022/08/11 06:19:32;;;;;;;6.07;3.67;;;26.60;38.90;;;;;;5035958;28;20259;-75
2022/08/11 06:21:59;;;;;;;4.28;3.60;;;26.70;38.80;;;;;;5033547;28;20199;-75
2022/08/11 06:24:27;;;;;;;3.95;3.25;;;26.80;38.60;;;;;;5033010;28;20204;-75
2022/08/11 06:26:54;;;;;;;3.92;3.22;;;26.90;38.40;;;;;;5032408;28;20204;-76
2022/08/11 06:29:22;;;;;;;4.90;3.53;;;27.10;38.20;;;;;;5034688;28;20342;-74
2022/08/11 06:31:55;;;;;;;4.55;3.30;;;27.10;38.70;;;;;;5035575;28;20567;-75
2022/08/11 06:34:32;;;;;;;4.18;3.47;;;27.20;37.80;;;;;;5035851;28;20204;-73
2022/08/11 06:37:05;;;;;;;3.97;3.30;;;27.30;37.60;;;;;;5037325;28;20612;-74
2022/08/11 06:39:43;;;;;;;5.40;3.70;;;27.40;37.40;;;;;;5035975;28;20250;-75
2022/08/11 06:42:11;;;;;;;3.55;3.08;;;27.50;37.50;;;;;;5036200;28;20192;-75
2022/08/11 06:44:43;;;;;;;3.78;3.13;;;27.60;37.30;;;;;;5020464;28;20191;-74
2022/08/11 06:47:12;;;;;;;3.85;3.50;;;27.60;37.10;;;;;;5035235;28;20196;-75
2022/08/11 06:52:31;;;;;;;4.38;3.65;;;27.80;36.90;;;;;;5035433;28;20200;-76
2022/08/11 06:55:05;;;;;;;4.57;3.53;;;27.90;36.80;;;;;;5035547;28;20230;-74
2022/08/11 07:00:30;;;;;;;3.85;3.35;;;28.00;37.20;;;;;;5036024;28;20203;-74
2022/08/11 07:03:07;;;;;;;4.80;3.40;;;28.10;36.50;;;;;;5035200;28;20200;-73
2022/08/11 07:05:42;;;;;;;3.90;3.50;;;28.10;36.30;;;;;;5035177;28;20191;-74
2022/08/11 07:17:14;;;;;;;5.50;3.50;;;28.40;35.80;;;;;;5035001;28;20191;-75
2022/08/11 07:30:46;;;;;;;3.95;3.38;;;28.80;35.30;;;;;;5034890;28;20657;-75
2022/08/11 07:33:13;;;;;;;4.72;3.75;;;28.90;35.20;;;;;;5034740;28;20199;-76
2022/08/11 07:35:45;;;;;;;3.63;3.33;;;28.90;35.10;;;;;;5034800;28;20199;-75
2022/08/11 07:38:18;;;;;;;3.60;3.30;;;29.00;35.00;;;;;;5034272;28;20219;-74
2022/08/11 07:40:45;;;;;;;4.97;3.40;;;29.00;34.80;;;;;;5033986;28;20206;-74
2022/08/11 07:43:12;;;;;;;3.53;3.22;;;29.10;34.80;;;;;;5034808;28;20654;-74
2022/08/11 07:53:56;;;;;;;3.50;3.20;;;29.30;34.40;;;;;;5034475;28;20191;-75
2022/08/11 07:56:23;;;;;;;3.58;3.10;;;29.30;34.30;;;;;;5035801;28;20206;-74
2022/08/11 08:18:05;;;;;;;3.20;2.90;;;29.60;33.60;;;;;;5033788;28;20215;-73
2022/08/11 08:20:34;;;;;;;2.92;2.72;;;29.70;33.50;;;;;;5034457;28;20230;-74
2022/08/11 08:23:03;;;;;;;3.47;3.03;;;29.70;33.60;;;;;;5033741;28;20195;-75
2022/08/11 08:25:31;;;;;;;3.33;3.00;;;29.70;33.60;;;;;;5033607;28;20200;-75
2022/08/11 08:27:59;;;;;;;3.00;2.80;;;29.70;33.70;;;;;;5033223;28;20220;-75
2022/08/11 08:33:11;;;;;;;3.17;2.80;;;29.80;33.60;;;;;;5034023;28;20262;-73
2022/08/11 08:35:38;;;;;;;2.88;2.67;;;29.80;33.50;;;;;;5033398;28;20204;-73
2022/08/11 08:38:07;;;;;;;3.15;2.85;;;29.80;33.50;;;;;;5033307;28;20219;-74
2022/08/11 08:40:34;;;;;;;3.15;2.85;;;29.80;33.40;;;;;;5016919;28;20250;-75
2022/08/11 08:43:06;;;;;;;4.10;2.90;;;29.80;33.30;;;;;;5033396;28;20195;-75
2022/08/11 08:45:34;;;;;;;3.30;2.95;;;29.90;33.40;;;;;;5033296;28;20195;-73
2022/08/11 08:48:02;;;;;;;3.92;2.80;;;29.90;33.30;;;;;;5033090;28;20223;-75
2022/08/11 08:53:21;;;;;;;3.03;2.72;;;29.90;33.20;;;;;;5034000;28;20176;-75
2022/08/11 08:55:49;;;;;;;3.30;3.00;;;29.90;33.20;;;;;;5033692;28;20215;-73
2022/08/11 08:58:18;;;;;;;3.10;2.80;;;30.00;33.30;;;;;;5032825;28;20318;-73
2022/08/11 09:00:46;;;;;;;3.22;2.67;;;29.90;33.00;;;;;;5032984;28;20537;-75
2022/08/11 09:03:13;;;;;;;3.17;2.80;;;30.00;33.10;;;;;;5033050;28;20195;-74
2022/08/11 09:05:40;;;;;;;3.83;2.65;;;30.00;33.10;;;;;;5033140;28;20203;-75
2022/08/11 09:08:08;;;;;;;2.67;2.45;;;30.00;33.10;;;;;;5033600;28;20677;-75
2022/08/11 09:10:36;;;;;;;2.90;2.70;;;30.00;33.10;;;;;;5033327;28;20286;-74
2022/08/11 09:13:03;;;;;;;3.08;2.78;;;30.00;33.10;;;;;;5032813;28;20191;-75
2022/08/11 09:15:33;;;;;;;3.03;2.75;;;30.00;33.10;;;;;;5032616;28;20199;-74
2022/08/11 09:18:04;;;;;;;2.95;2.65;;;30.10;33.00;;;;;;5032531;28;20219;-74
2022/08/11 09:20:33;;;;;;;2.90;2.70;;;30.10;33.10;;;;;;5032579;28;20670;-75
2022/08/11 09:28:35;;;;;;;3.63;2.60;;;30.10;33.10;;;;;;5032927;28;20219;-73
2022/08/11 09:31:02;;;;;;;3.00;2.70;;;30.10;33.10;;;;;;5032408;28;20246;-73
2022/08/11 09:33:29;;;;;;;2.92;2.55;;;30.10;33.10;;;;;;5032410;28;20290;-73
2022/08/11 09:35:56;;;;;;;2.95;2.70;;;30.10;33.10;;;;;;5016331;28;20218;-74
2022/08/11 09:41:12;;;;;;;2.75;2.42;;;30.10;33.10;;;;;;5033470;28;20210;-73
2022/08/11 09:46:27;;;;;;;2.90;2.70;;;30.10;33.20;;;;;;5032457;28;20187;-73
2022/08/11 09:48:55;;;;;;;2.50;2.30;;;30.10;33.70;;;;;;5032529;28;20298;-74
2022/08/11 09:51:23;;;;;;;3.15;2.85;;;30.10;33.20;;;;;;5032804;28;20199;-73
2022/08/11 09:53:49;;;;;;;2.50;2.30;;;30.00;33.10;;;;;;5032868;28;20203;-74
2022/08/11 09:59:04;;;;;;;2.72;2.50;;;30.00;33.20;;;;;;5034113;28;20595;-73
2022/08/11 10:01:34;;;;;;;2.80;2.60;;;29.90;33.20;;;;;;5036014;28;20195;-74
2022/08/11 10:04:08;;;;;;;2.38;2.17;;;30.00;33.40;;;;;;5057819;28;20213;-75
2022/08/11 10:09:22;;;;;;;2.50;2.30;;;30.00;33.50;;;;;;5036491;28;20254;-73
2022/08/11 10:11:50;;;;;;;2.70;2.30;;;29.90;33.40;;;;;;5036512;28;20720;-73
2022/08/11 10:17:03;;;;;;;2.55;2.35;;;29.90;33.60;;;;;;5014725;28;20238;-75
2022/08/11 10:19:30;;;;;;;2.30;2.17;;;29.90;33.60;;;;;;5036761;28;20219;-75
2022/08/11 10:27:28;;;;;;;2.45;2.20;;;29.70;33.70;;;;;;5036597;28;20591;-73
2022/08/11 10:35:25;;;;;;;2.53;2.33;;;29.60;34.00;;;;;;5036463;28;20645;-73
2022/08/11 10:37:52;;;;;;;2.35;2.15;;;29.60;34.00;;;;;;5035357;28;20262;-74
2022/08/11 10:40:21;;;;;;;2.45;2.25;;;29.60;34.10;;;;;;5036430;28;20678;-75
2022/08/11 10:43:04;;;;;;;2.40;2.20;;;29.50;34.20;;;;;;5035758;28;20195;-75
2022/08/11 10:48:16;;;;;;;2.08;1.90;;;29.40;34.40;;;;;;5035362;28;20261;-74
2022/08/11 10:59:03;;;;;;;2.45;2.25;;;29.20;34.90;;;;;;5035166;28;20222;-73
2022/08/11 11:01:31;;;;;;;2.60;2.40;;;29.10;35.00;;;;;;5035304;28;20210;-75
2022/08/11 11:04:01;;;;;;;2.42;2.22;;;29.10;35.10;;;;;;5035098;28;20223;-73
2022/08/11 11:06:32;;;;;;;2.50;2.22;;;29.10;35.20;;;;;;5018775;28;20728;-75
2022/08/11 11:09:03;;;;;;;2.58;2.33;;;29.00;35.30;;;;;;5035237;28;20596;-73
2022/08/11 11:19:55;;;;;;;2.60;2.40;;;28.80;35.80;;;;;;5011616;28;20757;-74
2022/08/11 11:22:40;;;;;;;2.20;2.10;;;28.70;35.90;;;;;;5034975;28;20196;-74
2022/08/11 11:25:15;;;;;;;2.88;2.42;;;28.70;35.90;;;;;;5036170;28;20176;-74
2022/08/11 11:27:52;;;;;;;2.50;2.30;;;28.70;36.10;;;;;;5036247;28;20231;-73
2022/08/11 11:30:20;;;;;;;2.20;2.10;;;28.60;36.10;;;;;;5035192;28;20203;-74
2022/08/11 11:32:49;;;;;;;2.22;2.13;;;28.60;36.20;;;;;;5034485;28;20669;-74
2022/08/11 11:35:22;;;;;;;2.30;2.10;;;28.60;36.30;;;;;;5035790;28;20187;-74
2022/08/11 11:37:50;;;;;;;2.30;2.10;;;28.50;36.30;;;;;;5034588;28;20241;-74
2022/08/11 11:40:20;;;;;;;2.45;2.25;;;28.50;36.40;;;;;;5034622;28;20215;-75
2022/08/11 11:42:47;;;;;;;2.50;2.30;;;28.50;36.40;;;;;;5034247;28;20227;-73
2022/08/11 11:45:15;;;;;;;2.40;2.20;;;28.50;36.40;;;;;;5018022;28;20199;-74
2022/08/11 11:47:44;;;;;;;2.40;2.20;;;28.50;36.50;;;;;;5034167;28;20310;-75
2022/08/11 11:50:11;;;;;;;2.33;2.13;;;28.50;36.50;;;;;;5034242;28;20199;-74
2022/08/11 11:52:39;;;;;;;2.20;2.03;;;28.50;36.50;;;;;;5034169;28;20242;-76
2022/08/11 11:55:06;;;;;;;2.20;2.05;;;28.50;36.60;;;;;;5034099;28;20188;-75
2022/08/11 12:03:06;;;;;;;2.30;2.10;;;28.40;36.50;;;;;;5034265;28;20260;-76
2022/08/11 12:05:34;;;;;;;2.00;1.80;;;28.40;36.50;;;;;;5034836;28;20196;-75
2022/08/11 12:08:14;;;;;;;2.15;1.98;;;28.50;36.60;;;;;;5034644;28;20230;-74
2022/08/11 12:10:44;;;;;;;2.42;2.22;;;28.50;36.60;;;;;;5033841;28;20586;-75
2022/08/11 12:15:56;;;;;;;1.90;1.80;;;28.40;36.60;;;;;;5034902;28;20188;-76
2022/08/11 12:18:24;;;;;;;2.15;1.95;;;28.40;36.60;;;;;;5033604;28;20220;-74
2022/08/11 12:20:51;;;;;;;1.95;1.85;;;28.40;36.70;;;;;;5033680;28;20215;-75
2022/08/11 12:28:46;;;;;;;2.10;1.90;;;28.40;36.90;;;;;;5034026;28;20214;-76
2022/08/11 12:31:14;;;;;;;2.05;1.95;;;28.40;36.90;;;;;;5033483;28;20206;-75
2022/08/11 12:33:43;;;;;;;1.88;1.77;;;28.30;36.80;;;;;;5017133;28;20199;-75
2022/08/11 12:36:15;;;;;;;2.22;2.00;;;28.40;36.90;;;;;;5033731;28;20760;-76
2022/08/11 12:38:44;;;;;;;1.92;1.83;;;28.30;37.00;;;;;;5033847;28;20226;-75
2022/08/11 12:46:36;;;;;;;1.90;1.80;;;28.30;37.10;;;;;;5001377;28;20313;-76
2022/08/11 12:52:09;;;;;;;1.80;1.67;;;28.30;37.20;;;;;;5033283;28;20196;-75
2022/08/11 12:54:50;;;;;;;1.92;1.73;;;28.30;37.20;;;;;;5017111;28;20199;-75
2022/08/11 13:05:36;;;;;;;1.98;1.88;;;28.20;37.20;;;;;;5032875;28;20647;-76
2022/08/11 13:08:03;;;;;;;1.67;1.58;;;28.20;37.30;;;;;;5032876;28;20215;-76
2022/08/11 13:13:17;;;;;;;1.88;1.77;;;28.20;37.40;;;;;;5032805;28;20213;-75
2022/08/11 13:15:45;;;;;;;2.08;1.92;;;28.20;37.40;;;;;;5032900;28;20286;-76
2022/08/11 13:18:12;;;;;;;1.75;1.65;;;28.20;37.40;;;;;;5032797;28;20226;-76
2022/08/11 13:20:40;;;;;;;2.03;1.67;;;28.10;37.40;;;;;;5032446;28;20219;-76
2022/08/11 13:23:07;;;;;;;2.13;1.98;;;28.10;37.50;;;;;;5032607;28;20199;-75
2022/08/11 13:25:34;;;;;;;2.10;1.90;;;28.10;38.20;;;;;;5032608;28;20204;-74
2022/08/11 13:28:02;;;;;;;1.90;1.80;;;28.10;37.60;;;;;;5032623;28;20230;-76
2022/08/11 13:33:11;;;;;;;2.00;1.90;;;28.10;37.70;;;;;;5021329;28;20306;-76
2022/08/11 13:35:39;;;;;;;1.90;1.80;;;28.10;37.80;;;;;;5033994;28;20196;-76
2022/08/11 13:38:06;;;;;;;2.10;1.85;;;28.00;37.70;;;;;;5034718;28;20277;-76
2022/08/11 13:40:34;;;;;;;1.98;1.80;;;28.00;37.80;;;;;;5036907;28;20217;-76
2022/08/11 13:43:01;;;;;;;1.98;1.88;;;28.00;37.80;;;;;;5036968;28;20206;-75
2022/08/11 13:45:28;;;;;;;2.50;1.77;;;28.00;37.80;;;;;;5036797;28;20241;-75
2022/08/11 13:47:56;;;;;;;2.03;1.92;;;27.90;37.80;;;;;;5037432;28;20258;-76
2022/08/11 13:51:29;;;;;;;1.67;1.58;;;27.90;37.80;;;;;;5036496;28;20202;-76
2022/08/11 13:53:14;;;;;;;1.90;1.80;;;27.90;38.00;;;;;;5023859;28;20204;-76
2022/08/11 13:55:41;;;;;;;1.80;1.70;;;27.90;38.00;;;;;;5036681;28;20717;-76
2022/08/11 13:58:09;;;;;;;2.05;1.90;;;27.90;38.10;;;;;;5036192;28;20218;-74
2022/08/11 14:00:36;;;;;;;1.73;1.63;;;27.90;38.20;;;;;;5036152;28;20215;-75
2022/08/11 14:03:04;;;;;;;1.83;1.73;;;27.90;38.30;;;;;;5036680;28;20202;-76
2022/08/11 14:05:47;;;;;;;1.80;1.70;;;27.90;38.30;;;;;;5036359;28;20207;-76
2022/08/11 14:08:17;;;;;;;1.70;1.60;;;27.80;38.30;;;;;;5036305;28;20755;-76
2022/08/11 14:10:45;;;;;;;1.80;1.70;;;27.80;38.40;;;;;;5037000;28;20733;-74
2022/08/11 14:16:03;;;;;;;1.58;1.48;;;27.80;38.50;;;;;;5036116;28;20234;-75
2022/08/11 14:18:31;;;;;;;1.70;1.60;;;27.80;38.50;;;;;;5036614;28;20261;-76
2022/08/11 14:23:48;;;;;;;1.55;1.45;;;27.80;38.50;;;;;;5037012;28;20187;-75
2022/08/11 14:26:26;;;;;;;2.10;1.80;;;27.80;38.50;;;;;;5035765;28;20204;-76
2022/08/11 14:28:54;;;;;;;1.73;1.63;;;27.80;38.60;;;;;;5035636;28;20219;-74
2022/08/11 14:31:24;;;;;;;1.80;1.70;;;27.80;38.50;;;;;;5035696;28;20207;-75
2022/08/11 14:33:51;;;;;;;1.38;1.27;;;27.80;38.60;;;;;;5035736;28;20199;-76
2022/08/11 14:36:18;;;;;;;1.70;1.60;;;27.80;38.60;;;;;;5035932;28;20199;-75
2022/08/11 14:38:46;;;;;;;1.58;1.48;;;27.80;38.60;;;;;;5035439;28;20262;-76
2022/08/11 14:49:28;;;;;;;1.70;1.60;;;27.80;38.70;;;;;;5035471;28;20257;-75
2022/08/11 14:51:56;;;;;;;1.75;1.65;;;27.80;38.70;;;;;;5035465;28;20191;-76
2022/08/11 14:57:10;;;;;;;1.70;1.60;;;27.80;38.60;;;;;;5035476;28;20203;-75
2022/08/11 14:59:37;;;;;;;1.60;1.50;;;27.80;38.70;;;;;;5035314;28;20253;-76
2022/08/11 15:04:49;;;;;;;1.65;1.55;;;27.80;38.70;;;;;;5035085;28;20549;-76
2022/08/11 15:07:16;;;;;;;2.08;1.60;;;27.80;38.60;;;;;;5034952;28;20206;-76
2022/08/11 15:09:45;;;;;;;1.80;1.70;;;27.80;38.50;;;;;;5035260;28;20204;-76
2022/08/11 15:12:17;;;;;;;1.70;1.60;;;27.80;38.60;;;;;;5034923;28;20208;-76
2022/08/11 15:17:29;;;;;;;1.85;1.70;;;27.80;38.70;;;;;;5034596;28;20211;-75
2022/08/11 15:25:27;;;;;;;1.67;1.58;;;27.80;38.70;;;;;;5034747;28;20195;-75
2022/08/11 15:38:55;;;;;;;1.60;1.50;;;27.80;38.60;;;;;;5034892;28;20212;-76
2022/08/11 15:46:55;;;;;;;1.83;1.73;;;27.70;38.60;;;;;;5035174;28;20551;-75
2022/08/11 15:49:23;;;;;;;1.95;1.70;;;27.70;38.60;;;;;;5034046;28;20772;-74
2022/08/11 15:52:06;;;;;;;1.85;1.73;;;27.80;38.70;;;;;;5034243;28;20207;-75
2022/08/11 15:54:33;;;;;;;1.55;1.45;;;27.70;38.70;;;;;;5034193;28;20207;-76
2022/08/11 15:57:02;;;;;;;1.50;1.40;;;27.70;38.80;;;;;;5033950;28;20196;-75
2022/08/11 16:05:02;;;;;;;1.40;1.40;;;27.70;38.80;;;;;;5033989;28;20282;-74
2022/08/11 16:07:31;;;;;;;1.55;1.45;;;27.70;38.80;;;;;;5034933;28;20219;-76
2022/08/11 16:09:59;;;;;;;1.70;1.60;;;27.70;38.90;;;;;;5034791;28;20552;-75
2022/08/11 16:12:30;;;;;;;1.52;1.42;;;27.60;38.80;;;;;;5033748;28;20571;-76
2022/08/11 16:17:45;;;;;;;1.50;1.40;;;27.60;39.00;;;;;;5033786;28;20219;-74
2022/08/11 16:20:13;;;;;;;1.80;1.70;;;27.60;38.90;;;;;;5034454;28;20258;-76
2022/08/11 16:22:42;;;;;;;1.77;1.67;;;27.60;39.00;;;;;;5033735;28;20200;-76
2022/08/11 16:25:11;;;;;;;1.70;1.60;;;27.60;38.90;;;;;;5033839;28;20199;-76
2022/08/11 16:27:41;;;;;;;1.67;1.58;;;27.60;39.00;;;;;;5033341;28;20237;-75
2022/08/11 16:30:09;;;;;;;1.50;1.40;;;27.60;39.10;;;;;;5034135;28;20218;-76
2022/08/11 16:32:38;;;;;;;1.60;1.50;;;27.60;38.90;;;;;;5033359;28;20211;-75
2022/08/11 16:40:35;;;;;;;1.80;1.70;;;27.60;39.10;;;;;;5033550;28;20215;-75
2022/08/11 16:48:35;;;;;;;1.42;1.35;;;27.50;39.10;;;;;;5033011;28;20216;-75
2022/08/11 16:51:03;;;;;;;1.50;1.40;;;27.50;39.10;;;;;;5033008;28;20199;-75
2022/08/11 16:53:30;;;;;;;1.60;1.50;;;27.50;39.10;;;;;;5033104;28;20187;-76
2022/08/11 16:55:58;;;;;;;1.73;1.63;;;27.50;39.20;;;;;;5033306;28;20211;-76
2022/08/11 17:01:11;;;;;;;1.88;1.60;;;27.40;39.30;;;;;;5032850;28;20211;-75
2022/08/11 17:14:43;;;;;;;1.85;1.60;;;27.30;39.50;;;;;;5034152;28;20188;-75
2022/08/11 17:17:13;;;;;;;1.70;1.60;;;27.30;39.50;;;;;;5034151;28;20196;-76
2022/08/11 17:19:44;;;;;;;4.18;1.80;;;27.30;39.60;;;;;;5033776;28;20714;-75
2022/08/11 17:24:56;;;;;;;1.70;1.60;;;27.30;39.80;;;;;;5032805;28;20202;-76
2022/08/11 17:27:24;;;;;;;1.63;1.52;;;27.30;40.40;;;;;;5016818;28;20614;-76
2022/08/11 17:29:54;;;;;;;2.45;1.60;;;27.30;40.40;;;;;;5016537;28;20211;-76
2022/08/11 17:37:55;;;;;;;2.35;1.42;;;27.30;40.50;;;;;;5033231;28;20219;-76
2022/08/11 17:40:23;;;;;;;1.80;1.70;;;27.20;40.50;;;;;;5033276;28;20208;-76
2022/08/11 17:51:04;;;;;;;1.70;1.60;;;27.20;40.20;;;;;;5030666;28;20199;-76
2022/08/11 18:01:50;;;;;;;2.60;1.50;;;27.20;40.00;;;;;;5033981;28;20215;-76
2022/08/11 18:04:15;;;;;;;2.10;1.90;;;27.20;39.80;;;;;;5034340;28;20196;-76
2022/08/11 18:06:42;;;;;;;1.90;1.80;;;27.20;40.00;;;;;;5033474;28;20223;-75
